sensor_id;sensor_type;location;lat;lon;timestamp;P1;durP1;ratioP1;P2;durP2;ratioP2
12848;SDS011;6493;50.928;7.172;2022-10-31T00:00:14;0.80;;;0.80;;
12848;SDS011;6493;50.928;7.172;2022-10-31T00:05:18;1.10;;;1.00;;
12848;SDS011;6493;50.928;7.172;2022-10-31T00:10:21;0.93;;;0.90;;
12848;SDS011;6493;50.928;7.172;2022-10-31T00:15:26;1.20;;;1.00;;
12848;SDS011;6493;50.928;7.172;2022-10-31T00:20:29;1.30;;;0.90;;
12848;SDS011;6493;50.928;7.172;2022-10-31T00:25:33;0.90;;;0.90;;
12848;SDS011;6493;50.928;7.172;2022-10-31T00:30:39;1.97;;;1.00;;
12848;SDS011;6493;50.928;7.172;2022-10-31T00:35:42;1.43;;;1.10;;
12848;SDS011;6493;50.928;7.172;2022-10-31T00:40:45;1.20;;;1.00;;
12848;SDS011;6493;50.928;7.172;2022-10-31T00:45:50;1.13;;;1.00;;
12848;SDS011;6493;50.928;7.172;2022-10-31T00:50:53;1.47;;;0.80;;
12848;SDS011;6493;50.928;7.172;2022-10-31T00:55:57;1.97;;;0.87;;
12848;SDS011;6493;50.928;7.172;2022-10-31T01:01:01;0.93;;;0.70;;
12848;SDS011;6493;50.928;7.172;2022-10-31T01:06:06;1.10;;;0.97;;
12848;SDS011;6493;50.928;7.172;2022-10-31T01:11:12;1.10;;;1.00;;
12848;SDS011;6493;50.928;7.172;2022-10-31T01:16:18;0.90;;;0.70;;
12848;SDS011;6493;50.928;7.172;2022-10-31T01:21:24;1.37;;;0.97;;
12848;SDS011;6493;50.928;7.172;2022-10-31T01:26:32;2.03;;;1.20;;
12848;SDS011;6493;50.928;7.172;2022-10-31T01:31:37;1.07;;;0.97;;
12848;SDS011;6493;50.928;7.172;2022-10-31T01:36:41;2.90;;;1.10;;
12848;SDS011;6493;50.928;7.172;2022-10-31T01:41:47;1.17;;;0.90;;
12848;SDS011;6493;50.928;7.172;2022-10-31T01:46:55;0.87;;;0.70;;
12848;SDS011;6493;50.928;7.172;2022-10-31T01:52:02;1.87;;;0.80;;
12848;SDS011;6493;50.928;7.172;2022-10-31T01:57:10;1.97;;;1.37;;
12848;SDS011;6493;50.928;7.172;2022-10-31T02:02:16;4.20;;;1.20;;
12848;SDS011;6493;50.928;7.172;2022-10-31T02:07:23;1.60;;;1.10;;
12848;SDS011;6493;50.928;7.172;2022-10-31T02:12:32;1.30;;;1.20;;
12848;SDS011;6493;50.928;7.172;2022-10-31T02:17:39;1.90;;;1.00;;
12848;SDS011;6493;50.928;7.172;2022-10-31T02:22:48;1.70;;;1.00;;
12848;SDS011;6493;50.928;7.172;2022-10-31T02:28:25;1.33;;;1.20;;
12848;SDS011;6493;50.928;7.172;2022-10-31T02:33:43;1.30;;;0.97;;
12848;SDS011;6493;50.928;7.172;2022-10-31T02:38:51;1.73;;;1.13;;
12848;SDS011;6493;50.928;7.172;2022-10-31T02:44:14;2.50;;;1.10;;
12848;SDS011;6493;50.928;7.172;2022-10-31T02:49:24;1.40;;;1.10;;
12848;SDS011;6493;50.928;7.172;2022-10-31T02:54:32;1.33;;;0.93;;
12848;SDS011;6493;50.928;7.172;2022-10-31T02:59:35;2.07;;;1.00;;
12848;SDS011;6493;50.928;7.172;2022-10-31T03:04:51;1.33;;;0.90;;
12848;SDS011;6493;50.928;7.172;2022-10-31T03:10:07;1.17;;;0.93;;
12848;SDS011;6493;50.928;7.172;2022-10-31T03:15:19;1.67;;;0.87;;
12848;SDS011;6493;50.928;7.172;2022-10-31T03:20:29;1.33;;;0.90;;
12848;SDS011;6493;50.928;7.172;2022-10-31T03:25:37;1.67;;;1.07;;
12848;SDS011;6493;50.928;7.172;2022-10-31T03:30:43;1.43;;;1.10;;
12848;SDS011;6493;50.928;7.172;2022-10-31T03:35:49;2.03;;;1.00;;
12848;SDS011;6493;50.928;7.172;2022-10-31T03:40:55;1.37;;;1.17;;
12848;SDS011;6493;50.928;7.172;2022-10-31T03:46:02;1.33;;;1.10;;
12848;SDS011;6493;50.928;7.172;2022-10-31T03:51:10;2.53;;;1.07;;
12848;SDS011;6493;50.928;7.172;2022-10-31T03:56:18;1.60;;;1.33;;
12848;SDS011;6493;50.928;7.172;2022-10-31T04:01:25;3.10;;;1.33;;
12848;SDS011;6493;50.928;7.172;2022-10-31T04:06:33;2.53;;;1.40;;
12848;SDS011;6493;50.928;7.172;2022-10-31T04:11:40;2.07;;;1.30;;
12848;SDS011;6493;50.928;7.172;2022-10-31T04:17:16;2.00;;;1.10;;
12848;SDS011;6493;50.928;7.172;2022-10-31T04:22:23;1.57;;;1.30;;
12848;SDS011;6493;50.928;7.172;2022-10-31T04:27:27;1.57;;;1.10;;
12848;SDS011;6493;50.928;7.172;2022-10-31T04:32:30;1.53;;;1.00;;
12848;SDS011;6493;50.928;7.172;2022-10-31T04:37:35;1.43;;;0.90;;
12848;SDS011;6493;50.928;7.172;2022-10-31T04:42:38;1.10;;;1.10;;
12848;SDS011;6493;50.928;7.172;2022-10-31T04:47:41;2.43;;;1.20;;
12848;SDS011;6493;50.928;7.172;2022-10-31T04:52:46;2.80;;;1.30;;
12848;SDS011;6493;50.928;7.172;2022-10-31T04:57:53;1.67;;;1.10;;
12848;SDS011;6493;50.928;7.172;2022-10-31T05:02:59;2.00;;;1.30;;
12848;SDS011;6493;50.928;7.172;2022-10-31T05:08:04;1.67;;;1.50;;
12848;SDS011;6493;50.928;7.172;2022-10-31T05:13:07;1.63;;;1.10;;
12848;SDS011;6493;50.928;7.172;2022-10-31T05:18:17;1.30;;;0.80;;
12848;SDS011;6493;50.928;7.172;2022-10-31T05:23:53;2.70;;;1.00;;
12848;SDS011;6493;50.928;7.172;2022-10-31T05:28:58;1.07;;;0.83;;
12848;SDS011;6493;50.928;7.172;2022-10-31T05:34:02;1.70;;;0.93;;
12848;SDS011;6493;50.928;7.172;2022-10-31T05:39:27;1.10;;;1.00;;
12848;SDS011;6493;50.928;7.172;2022-10-31T05:44:34;1.40;;;1.10;;
12848;SDS011;6493;50.928;7.172;2022-10-31T05:49:52;1.47;;;1.10;;
12848;SDS011;6493;50.928;7.172;2022-10-31T05:55:15;1.43;;;1.10;;
12848;SDS011;6493;50.928;7.172;2022-10-31T06:00:35;1.53;;;1.17;;
12848;SDS011;6493;50.928;7.172;2022-10-31T06:05:42;1.13;;;1.03;;
12848;SDS011;6493;50.928;7.172;2022-10-31T06:10:53;1.57;;;1.40;;
12848;SDS011;6493;50.928;7.172;2022-10-31T06:16:16;1.90;;;1.40;;
12848;SDS011;6493;50.928;7.172;2022-10-31T06:21:19;1.53;;;1.10;;
12848;SDS011;6493;50.928;7.172;2022-10-31T06:26:26;2.30;;;1.20;;
12848;SDS011;6493;50.928;7.172;2022-10-31T06:31:29;1.90;;;1.30;;
12848;SDS011;6493;50.928;7.172;2022-10-31T06:36:32;2.43;;;1.73;;
12848;SDS011;6493;50.928;7.172;2022-10-31T06:41:38;2.00;;;1.40;;
12848;SDS011;6493;50.928;7.172;2022-10-31T06:46:45;1.30;;;1.20;;
12848;SDS011;6493;50.928;7.172;2022-10-31T06:52:18;1.63;;;1.20;;
12848;SDS011;6493;50.928;7.172;2022-10-31T06:57:22;2.30;;;1.83;;
12848;SDS011;6493;50.928;7.172;2022-10-31T07:02:26;2.63;;;2.00;;
12848;SDS011;6493;50.928;7.172;2022-10-31T07:07:30;3.13;;;1.90;;
12848;SDS011;6493;50.928;7.172;2022-10-31T07:12:35;2.70;;;2.03;;
12848;SDS011;6493;50.928;7.172;2022-10-31T07:17:38;3.23;;;2.40;;
12848;SDS011;6493;50.928;7.172;2022-10-31T07:22:43;5.40;;;2.33;;
12848;SDS011;6493;50.928;7.172;2022-10-31T07:27:53;3.20;;;2.40;;
12848;SDS011;6493;50.928;7.172;2022-10-31T07:32:56;2.13;;;1.80;;
12848;SDS011;6493;50.928;7.172;2022-10-31T07:38:16;2.73;;;1.70;;
12848;SDS011;6493;50.928;7.172;2022-10-31T07:43:21;2.40;;;1.83;;
12848;SDS011;6493;50.928;7.172;2022-10-31T07:48:45;1.83;;;1.53;;
12848;SDS011;6493;50.928;7.172;2022-10-31T07:54:06;3.37;;;1.60;;
12848;SDS011;6493;50.928;7.172;2022-10-31T07:59:12;2.07;;;1.50;;
12848;SDS011;6493;50.928;7.172;2022-10-31T08:04:16;2.60;;;1.63;;
12848;SDS011;6493;50.928;7.172;2022-10-31T08:09:48;2.10;;;1.50;;
12848;SDS011;6493;50.928;7.172;2022-10-31T08:14:59;1.60;;;1.03;;
12848;SDS011;6493;50.928;7.172;2022-10-31T08:20:03;1.87;;;1.30;;
12848;SDS011;6493;50.928;7.172;2022-10-31T08:25:15;1.10;;;0.93;;
12848;SDS011;6493;50.928;7.172;2022-10-31T08:30:20;2.23;;;1.30;;
12848;SDS011;6493;50.928;7.172;2022-10-31T08:35:45;1.13;;;1.03;;
12848;SDS011;6493;50.928;7.172;2022-10-31T08:41:21;2.17;;;1.30;;
12848;SDS011;6493;50.928;7.172;2022-10-31T08:46:27;1.80;;;1.60;;
12848;SDS011;6493;50.928;7.172;2022-10-31T08:51:31;1.80;;;1.47;;
12848;SDS011;6493;50.928;7.172;2022-10-31T08:56:35;1.73;;;1.50;;
12848;SDS011;6493;50.928;7.172;2022-10-31T09:01:48;3.10;;;1.40;;
12848;SDS011;6493;50.928;7.172;2022-10-31T09:06:52;4.03;;;2.00;;
12848;SDS011;6493;50.928;7.172;2022-10-31T09:12:15;2.53;;;1.97;;
12848;SDS011;6493;50.928;7.172;2022-10-31T09:17:23;1.67;;;1.40;;
12848;SDS011;6493;50.928;7.172;2022-10-31T09:23:03;2.80;;;1.40;;
12848;SDS011;6493;50.928;7.172;2022-10-31T09:28:12;2.40;;;1.50;;
12848;SDS011;6493;50.928;7.172;2022-10-31T09:33:20;2.63;;;1.70;;
12848;SDS011;6493;50.928;7.172;2022-10-31T09:38:39;1.90;;;1.80;;
12848;SDS011;6493;50.928;7.172;2022-10-31T09:43:45;2.77;;;2.27;;
12848;SDS011;6493;50.928;7.172;2022-10-31T09:49:00;3.07;;;2.77;;
12848;SDS011;6493;50.928;7.172;2022-10-31T09:54:25;2.53;;;1.70;;
12848;SDS011;6493;50.928;7.172;2022-10-31T09:59:33;3.70;;;1.87;;
12848;SDS011;6493;50.928;7.172;2022-10-31T10:04:42;2.97;;;2.40;;
12848;SDS011;6493;50.928;7.172;2022-10-31T10:09:53;5.27;;;3.30;;
12848;SDS011;6493;50.928;7.172;2022-10-31T10:20:57;6.70;;;3.53;;
12848;SDS011;6493;50.928;7.172;2022-10-31T10:26:10;3.53;;;2.80;;
12848;SDS011;6493;50.928;7.172;2022-10-31T10:31:21;3.30;;;2.67;;
12848;SDS011;6493;50.928;7.172;2022-10-31T10:36:30;5.83;;;3.07;;
12848;SDS011;6493;50.928;7.172;2022-10-31T10:41:39;5.03;;;3.20;;
12848;SDS011;6493;50.928;7.172;2022-10-31T10:46:48;3.80;;;2.40;;
12848;SDS011;6493;50.928;7.172;2022-10-31T10:52:25;2.87;;;2.30;;
12848;SDS011;6493;50.928;7.172;2022-10-31T10:57:50;4.53;;;2.40;;
12848;SDS011;6493;50.928;7.172;2022-10-31T11:02:58;3.63;;;2.43;;
12848;SDS011;6493;50.928;7.172;2022-10-31T11:08:04;2.77;;;1.87;;
12848;SDS011;6493;50.928;7.172;2022-10-31T11:13:17;3.90;;;2.00;;
12848;SDS011;6493;50.928;7.172;2022-10-31T11:18:25;6.13;;;3.03;;
12848;SDS011;6493;50.928;7.172;2022-10-31T11:23:31;3.77;;;2.30;;
12848;SDS011;6493;50.928;7.172;2022-10-31T11:28:35;2.83;;;2.03;;
12848;SDS011;6493;50.928;7.172;2022-10-31T11:33:39;6.43;;;2.47;;
12848;SDS011;6493;50.928;7.172;2022-10-31T11:38:50;3.67;;;2.87;;
12848;SDS011;6493;50.928;7.172;2022-10-31T11:43:55;3.80;;;2.77;;
12848;SDS011;6493;50.928;7.172;2022-10-31T11:49:01;3.43;;;2.50;;
12848;SDS011;6493;50.928;7.172;2022-10-31T11:54:06;3.33;;;2.57;;
12848;SDS011;6493;50.928;7.172;2022-10-31T11:59:26;2.90;;;2.50;;
12848;SDS011;6493;50.928;7.172;2022-10-31T12:04:36;3.50;;;2.30;;
12848;SDS011;6493;50.928;7.172;2022-10-31T12:09:45;4.53;;;3.23;;
12848;SDS011;6493;50.928;7.172;2022-10-31T12:14:51;3.97;;;2.87;;
12848;SDS011;6493;50.928;7.172;2022-10-31T12:20:04;3.00;;;2.47;;
12848;SDS011;6493;50.928;7.172;2022-10-31T12:25:24;3.23;;;2.43;;
12848;SDS011;6493;50.928;7.172;2022-10-31T12:30:40;2.30;;;2.07;;
12848;SDS011;6493;50.928;7.172;2022-10-31T12:35:51;5.67;;;2.50;;
12848;SDS011;6493;50.928;7.172;2022-10-31T12:41:07;2.33;;;2.13;;
12848;SDS011;6493;50.928;7.172;2022-10-31T12:46:25;3.30;;;2.47;;
12848;SDS011;6493;50.928;7.172;2022-10-31T12:51:38;3.13;;;2.20;;
12848;SDS011;6493;50.928;7.172;2022-10-31T12:56:49;4.20;;;2.50;;
12848;SDS011;6493;50.928;7.172;2022-10-31T13:01:59;4.97;;;2.43;;
12848;SDS011;6493;50.928;7.172;2022-10-31T13:07:08;5.63;;;2.40;;
12848;SDS011;6493;50.928;7.172;2022-10-31T13:12:16;2.70;;;2.03;;
12848;SDS011;6493;50.928;7.172;2022-10-31T13:17:25;5.93;;;2.43;;
12848;SDS011;6493;50.928;7.172;2022-10-31T13:22:32;4.17;;;2.63;;
12848;SDS011;6493;50.928;7.172;2022-10-31T13:27:42;3.90;;;2.30;;
12848;SDS011;6493;50.928;7.172;2022-10-31T13:32:51;3.30;;;2.03;;
12848;SDS011;6493;50.928;7.172;2022-10-31T13:38:03;2.63;;;1.60;;
12848;SDS011;6493;50.928;7.172;2022-10-31T13:43:17;4.60;;;2.13;;
12848;SDS011;6493;50.928;7.172;2022-10-31T13:53:56;1.73;;;1.63;;
12848;SDS011;6493;50.928;7.172;2022-10-31T13:59:22;2.73;;;1.97;;
12848;SDS011;6493;50.928;7.172;2022-10-31T14:04:29;2.80;;;2.17;;
12848;SDS011;6493;50.928;7.172;2022-10-31T14:09:39;3.23;;;1.80;;
12848;SDS011;6493;50.928;7.172;2022-10-31T14:14:58;4.53;;;2.30;;
12848;SDS011;6493;50.928;7.172;2022-10-31T14:20:24;3.63;;;2.00;;
12848;SDS011;6493;50.928;7.172;2022-10-31T14:25:40;4.23;;;2.20;;
12848;SDS011;6493;50.928;7.172;2022-10-31T14:30:50;3.00;;;2.03;;
12848;SDS011;6493;50.928;7.172;2022-10-31T14:35:56;2.73;;;1.67;;
12848;SDS011;6493;50.928;7.172;2022-10-31T14:41:08;3.13;;;2.47;;
12848;SDS011;6493;50.928;7.172;2022-10-31T14:46:26;4.93;;;2.60;;
12848;SDS011;6493;50.928;7.172;2022-10-31T14:51:38;4.07;;;2.27;;
12848;SDS011;6493;50.928;7.172;2022-10-31T14:56:48;4.50;;;2.57;;
12848;SDS011;6493;50.928;7.172;2022-10-31T15:01:57;5.03;;;2.47;;
12848;SDS011;6493;50.928;7.172;2022-10-31T15:07:05;9.27;;;2.63;;
12848;SDS011;6493;50.928;7.172;2022-10-31T15:12:22;3.67;;;2.10;;
12848;SDS011;6493;50.928;7.172;2022-10-31T15:17:28;3.77;;;2.10;;
12848;SDS011;6493;50.928;7.172;2022-10-31T15:22:31;5.20;;;2.60;;
12848;SDS011;6493;50.928;7.172;2022-10-31T15:27:35;4.20;;;1.73;;
12848;SDS011;6493;50.928;7.172;2022-10-31T15:32:43;6.47;;;2.20;;
12848;SDS011;6493;50.928;7.172;2022-10-31T15:37:58;2.13;;;1.70;;
12848;SDS011;6493;50.928;7.172;2022-10-31T15:43:03;2.97;;;1.80;;
12848;SDS011;6493;50.928;7.172;2022-10-31T15:48:15;4.43;;;2.23;;
12848;SDS011;6493;50.928;7.172;2022-10-31T15:53:21;4.37;;;1.90;;
12848;SDS011;6493;50.928;7.172;2022-10-31T15:58:28;5.40;;;2.53;;
12848;SDS011;6493;50.928;7.172;2022-10-31T16:03:34;4.90;;;1.80;;
12848;SDS011;6493;50.928;7.172;2022-10-31T16:08:37;4.37;;;2.20;;
12848;SDS011;6493;50.928;7.172;2022-10-31T16:13:52;3.87;;;1.90;;
12848;SDS011;6493;50.928;7.172;2022-10-31T16:18:59;3.93;;;2.20;;
12848;SDS011;6493;50.928;7.172;2022-10-31T16:24:05;3.23;;;2.00;;
12848;SDS011;6493;50.928;7.172;2022-10-31T16:29:24;2.60;;;1.93;;
12848;SDS011;6493;50.928;7.172;2022-10-31T16:34:30;2.70;;;1.97;;
12848;SDS011;6493;50.928;7.172;2022-10-31T16:39:34;3.20;;;1.77;;
12848;SDS011;6493;50.928;7.172;2022-10-31T16:44:37;5.60;;;1.80;;
12848;SDS011;6493;50.928;7.172;2022-10-31T16:49:42;3.53;;;2.37;;
12848;SDS011;6493;50.928;7.172;2022-10-31T16:54:46;3.87;;;1.90;;
12848;SDS011;6493;50.928;7.172;2022-10-31T16:59:51;3.37;;;1.77;;
12848;SDS011;6493;50.928;7.172;2022-10-31T17:04:57;4.13;;;1.80;;
12848;SDS011;6493;50.928;7.172;2022-10-31T17:10:00;3.60;;;2.10;;
12848;SDS011;6493;50.928;7.172;2022-10-31T17:15:03;1.80;;;1.40;;
12848;SDS011;6493;50.928;7.172;2022-10-31T17:20:12;2.57;;;1.50;;
12848;SDS011;6493;50.928;7.172;2022-10-31T17:25:21;2.47;;;2.00;;
12848;SDS011;6493;50.928;7.172;2022-10-31T17:30:26;4.27;;;1.80;;
12848;SDS011;6493;50.928;7.172;2022-10-31T17:35:31;4.17;;;2.10;;
12848;SDS011;6493;50.928;7.172;2022-10-31T17:40:35;4.93;;;2.50;;
12848;SDS011;6493;50.928;7.172;2022-10-31T17:45:40;4.30;;;2.00;;
12848;SDS011;6493;50.928;7.172;2022-10-31T17:50:45;3.90;;;1.70;;
12848;SDS011;6493;50.928;7.172;2022-10-31T17:55:48;4.70;;;2.07;;
12848;SDS011;6493;50.928;7.172;2022-10-31T18:00:51;3.20;;;2.00;;
12848;SDS011;6493;50.928;7.172;2022-10-31T18:05:56;3.97;;;2.30;;
12848;SDS011;6493;50.928;7.172;2022-10-31T18:11:04;4.17;;;2.00;;
12848;SDS011;6493;50.928;7.172;2022-10-31T18:16:10;3.60;;;2.00;;
12848;SDS011;6493;50.928;7.172;2022-10-31T18:21:15;5.03;;;2.43;;
12848;SDS011;6493;50.928;7.172;2022-10-31T18:26:18;4.07;;;2.10;;
12848;SDS011;6493;50.928;7.172;2022-10-31T18:31:22;4.37;;;2.40;;
12848;SDS011;6493;50.928;7.172;2022-10-31T18:36:26;4.60;;;2.60;;
12848;SDS011;6493;50.928;7.172;2022-10-31T18:41:30;5.93;;;2.50;;
12848;SDS011;6493;50.928;7.172;2022-10-31T18:46:33;5.73;;;2.30;;
12848;SDS011;6493;50.928;7.172;2022-10-31T18:51:39;4.00;;;2.40;;
12848;SDS011;6493;50.928;7.172;2022-10-31T18:56:42;2.80;;;1.90;;
12848;SDS011;6493;50.928;7.172;2022-10-31T19:01:45;3.33;;;2.17;;
12848;SDS011;6493;50.928;7.172;2022-10-31T19:06:50;3.83;;;2.10;;
12848;SDS011;6493;50.928;7.172;2022-10-31T19:11:53;5.10;;;2.20;;
12848;SDS011;6493;50.928;7.172;2022-10-31T19:16:56;3.53;;;2.17;;
12848;SDS011;6493;50.928;7.172;2022-10-31T19:22:04;5.83;;;2.40;;
12848;SDS011;6493;50.928;7.172;2022-10-31T19:27:08;7.20;;;2.67;;
12848;SDS011;6493;50.928;7.172;2022-10-31T19:32:12;3.47;;;2.30;;
12848;SDS011;6493;50.928;7.172;2022-10-31T19:37:16;5.40;;;2.80;;
12848;SDS011;6493;50.928;7.172;2022-10-31T19:42:20;2.33;;;2.10;;
12848;SDS011;6493;50.928;7.172;2022-10-31T19:47:24;3.17;;;2.13;;
12848;SDS011;6493;50.928;7.172;2022-10-31T19:52:29;4.27;;;2.20;;
12848;SDS011;6493;50.928;7.172;2022-10-31T19:57:35;3.20;;;2.10;;
12848;SDS011;6493;50.928;7.172;2022-10-31T20:02:58;5.23;;;2.53;;
12848;SDS011;6493;50.928;7.172;2022-10-31T20:08:03;3.90;;;2.20;;
12848;SDS011;6493;50.928;7.172;2022-10-31T20:13:06;3.40;;;1.90;;
12848;SDS011;6493;50.928;7.172;2022-10-31T20:18:11;4.73;;;2.67;;
12848;SDS011;6493;50.928;7.172;2022-10-31T20:23:16;3.50;;;2.67;;
12848;SDS011;6493;50.928;7.172;2022-10-31T20:28:19;4.73;;;2.03;;
12848;SDS011;6493;50.928;7.172;2022-10-31T20:33:22;3.47;;;2.03;;
12848;SDS011;6493;50.928;7.172;2022-10-31T20:38:26;4.23;;;2.50;;
12848;SDS011;6493;50.928;7.172;2022-10-31T20:43:30;3.67;;;2.00;;
12848;SDS011;6493;50.928;7.172;2022-10-31T20:48:34;2.73;;;2.00;;
12848;SDS011;6493;50.928;7.172;2022-10-31T20:53:39;4.17;;;2.47;;
12848;SDS011;6493;50.928;7.172;2022-10-31T20:58:43;4.00;;;2.13;;
12848;SDS011;6493;50.928;7.172;2022-10-31T21:03:47;3.00;;;2.20;;
12848;SDS011;6493;50.928;7.172;2022-10-31T21:08:52;3.63;;;2.20;;
12848;SDS011;6493;50.928;7.172;2022-10-31T21:13:59;2.90;;;2.30;;
12848;SDS011;6493;50.928;7.172;2022-10-31T21:19:04;2.47;;;2.10;;
12848;SDS011;6493;50.928;7.172;2022-10-31T21:24:11;3.93;;;2.50;;
12848;SDS011;6493;50.928;7.172;2022-10-31T21:29:16;3.67;;;2.50;;
12848;SDS011;6493;50.928;7.172;2022-10-31T21:34:19;4.50;;;2.33;;
12848;SDS011;6493;50.928;7.172;2022-10-31T21:39:29;4.87;;;2.20;;
12848;SDS011;6493;50.928;7.172;2022-10-31T21:44:39;2.83;;;1.90;;
12848;SDS011;6493;50.928;7.172;2022-10-31T21:49:43;5.77;;;2.60;;
12848;SDS011;6493;50.928;7.172;2022-10-31T21:54:47;3.07;;;2.17;;
12848;SDS011;6493;50.928;7.172;2022-10-31T21:59:50;3.60;;;2.07;;
12848;SDS011;6493;50.928;7.172;2022-10-31T22:04:53;4.80;;;2.30;;
12848;SDS011;6493;50.928;7.172;2022-10-31T22:09:58;3.47;;;2.20;;
12848;SDS011;6493;50.928;7.172;2022-10-31T22:15:01;4.73;;;2.57;;
12848;SDS011;6493;50.928;7.172;2022-10-31T22:20:05;3.37;;;2.10;;
12848;SDS011;6493;50.928;7.172;2022-10-31T22:25:10;3.83;;;1.93;;
12848;SDS011;6493;50.928;7.172;2022-10-31T22:30:14;3.37;;;1.80;;
12848;SDS011;6493;50.928;7.172;2022-10-31T22:35:17;3.80;;;2.30;;
12848;SDS011;6493;50.928;7.172;2022-10-31T22:40:21;1.77;;;1.50;;
12848;SDS011;6493;50.928;7.172;2022-10-31T22:45:24;2.83;;;1.70;;
12848;SDS011;6493;50.928;7.172;2022-10-31T22:50:28;2.40;;;1.50;;
12848;SDS011;6493;50.928;7.172;2022-10-31T22:55:34;2.87;;;1.93;;
12848;SDS011;6493;50.928;7.172;2022-10-31T23:00:38;2.33;;;1.70;;
12848;SDS011;6493;50.928;7.172;2022-10-31T23:05:42;4.13;;;2.07;;
12848;SDS011;6493;50.928;7.172;2022-10-31T23:10:49;2.07;;;1.53;;
12848;SDS011;6493;50.928;7.172;2022-10-31T23:15:52;2.50;;;1.60;;
12848;SDS011;6493;50.928;7.172;2022-10-31T23:20:55;3.53;;;1.70;;
12848;SDS011;6493;50.928;7.172;2022-10-31T23:26:00;2.33;;;1.40;;
12848;SDS011;6493;50.928;7.172;2022-10-31T23:31:21;3.77;;;1.63;;
12848;SDS011;6493;50.928;7.172;2022-10-31T23:36:24;2.07;;;1.50;;
12848;SDS011;6493;50.928;7.172;2022-10-31T23:41:29;1.97;;;1.50;;
12848;SDS011;6493;50.928;7.172;2022-10-31T23:46:32;2.63;;;1.70;;
12848;SDS011;6493;50.928;7.172;2022-10-31T23:51:35;3.70;;;1.60;;
12848;SDS011;6493;50.928;7.172;2022-10-31T23:56:41;2.07;;;1.63;;
